Time,TemperatureF,DewpointF,PressureIn,WindDirection,WindDirectionDegrees,WindSpeedMPH,WindSpeedGustMPH,Humidity,HourlyPrecipIn,Conditions,Clouds,dailyrainin,SoftwareType,DateUTC
2013-03-29 00:00:00,50.6,39.0,30.14,ESE,113,1.6,2.5,64,0.00,,,0.00,WUHU216HW,2013-03-29 05:00:00,
2013-03-29 00:05:00,50.5,38.5,30.14,NNE,23,0.7,2.7,63,0.00,,,0.00,WUHU216HW,2013-03-29 05:05:00,
2013-03-29 00:10:00,50.5,38.5,30.14,ENE,68,0.7,3.6,63,0.00,,,0.00,WUHU216HW,2013-03-29 05:10:00,
2013-03-29 00:15:00,50.5,38.5,30.14,North,0,1.8,3.6,63,0.00,,,0.00,WUHU216HW,2013-03-29 05:15:00,
2013-03-29 00:20:00,50.5,38.5,30.14,NNE,23,0.4,1.8,63,0.00,,,0.00,WUHU216HW,2013-03-29 05:20:00,
2013-03-29 00:25:00,50.3,38.3,30.14,NE,45,0.0,1.1,63,0.00,,,0.00,WUHU216HW,2013-03-29 05:25:00,
2013-03-29 00:30:00,49.9,38.3,30.14,ENE,68,0.0,1.3,64,0.00,,,0.00,WUHU216HW,2013-03-29 05:30:00,
2013-03-29 00:35:00,49.7,38.1,30.14,ENE,68,0.0,1.3,64,0.00,,,0.00,WUHU216HW,2013-03-29 05:35:00,
2013-03-29 00:40:00,49.6,38.0,30.14,NE,45,0.4,1.1,64,0.00,,,0.00,WUHU216HW,2013-03-29 05:40:00,
2013-03-29 00:45:00,49.4,37.8,30.14,NE,45,0.0,1.1,64,0.00,,,0.00,WUHU216HW,2013-03-29 05:45:00,
2013-03-29 00:50:00,49.2,37.6,30.15,NNW,338,1.3,1.8,64,0.00,,,0.00,WUHU216HW,2013-03-29 05:50:00,
2013-03-29 00:55:00,49.2,37.6,30.15,NNW,338,0.0,1.8,64,0.00,,,0.00,WUHU216HW,2013-03-29 05:55:00,
2013-03-29 01:00:00,49.0,37.5,30.14,ENE,68,0.0,1.6,64,0.00,,,0.00,WUHU216HW,2013-03-29 06:00:00,
2013-03-29 01:05:00,48.5,37.4,30.14,NNW,338,0.7,1.8,65,0.00,,,0.00,WUHU216HW,2013-03-29 06:05:00,
2013-03-29 01:10:00,48.5,37.4,30.15,NNW,338,0.4,1.8,65,0.00,,,0.00,WUHU216HW,2013-03-29 06:10:00,
2013-03-29 01:15:00,48.5,37.4,30.14,NNE,23,0.9,1.3,65,0.00,,,0.00,WUHU216HW,2013-03-29 06:15:00,
2013-03-29 01:20:00,48.1,37.0,30.14,SSE,158,0.0,1.1,65,0.00,,,0.00,WUHU216HW,2013-03-29 06:20:00,
2013-03-29 01:25:00,47.8,36.7,30.14,NE,45,0.2,0.9,65,0.00,,,0.00,WUHU216HW,2013-03-29 06:25:00,
2013-03-29 01:30:00,47.6,36.9,30.14,North,0,0.4,1.6,66,0.00,,,0.00,WUHU216HW,2013-03-29 06:30:00,
2013-03-29 01:35:00,47.2,36.1,30.14,North,0,0.0,1.6,65,0.00,,,0.00,WUHU216HW,2013-03-29 06:35:00,
2013-03-29 01:40:00,47.0,36.3,30.14,North,0,0.0,0.9,66,0.00,,,0.00,WUHU216HW,2013-03-29 06:40:00,
2013-03-29 01:45:00,47.0,36.3,30.14,NE,45,1.1,1.1,66,0.00,,,0.00,WUHU216HW,2013-03-29 06:45:00,
2013-03-29 01:50:00,46.9,36.2,30.14,ENE,68,1.6,1.6,66,0.00,,,0.00,WUHU216HW,2013-03-29 06:50:00,
2013-03-29 01:55:00,46.7,36.0,30.15,NNE,23,0.0,1.6,66,0.00,,,0.00,WUHU216HW,2013-03-29 06:55:00,
2013-03-29 02:00:00,46.3,35.7,30.15,SW,225,2.0,2.0,66,0.00,,,0.00,WUHU216HW,2013-03-29 07:00:00,
2013-03-29 02:05:00,45.8,35.6,30.15,SW,225,1.1,2.0,67,0.00,,,0.00,WUHU216HW,2013-03-29 07:05:00,
2013-03-29 02:10:00,45.4,35.5,30.15,ESE,113,0.4,2.0,68,0.00,,,0.00,WUHU216HW,2013-03-29 07:10:00,
2013-03-29 02:15:00,45.2,35.4,30.15,ENE,68,0.0,1.1,68,0.00,,,0.00,WUHU216HW,2013-03-29 07:15:00,
2013-03-29 02:20:00,44.9,35.1,30.15,SSW,203,0.9,1.1,68,0.00,,,0.00,WUHU216HW,2013-03-29 07:20:00,
2013-03-29 02:25:00,44.7,35.2,30.15,SSW,203,0.2,1.1,69,0.00,,,0.00,WUHU216HW,2013-03-29 07:25:00,
2013-03-29 02:30:00,44.5,35.4,30.15,NNE,23,0.0,1.1,70,0.00,,,0.00,WUHU216HW,2013-03-29 07:30:00,
2013-03-29 02:35:00,44.5,35.4,30.14,NNE,23,0.0,0.4,70,0.00,,,0.00,WUHU216HW,2013-03-29 07:35:00,
2013-03-29 02:40:00,44.5,35.4,30.14,NNE,23,0.2,1.1,70,0.00,,,0.00,WUHU216HW,2013-03-29 07:40:00,
2013-03-29 02:45:00,44.3,35.2,30.14,NNE,23,0.0,1.1,70,0.00,,,0.00,WUHU216HW,2013-03-29 07:45:00,
2013-03-29 02:50:00,44.0,34.9,30.14,North,0,1.1,1.1,70,0.00,,,0.00,WUHU216HW,2013-03-29 07:50:00,
2013-03-29 02:55:00,43.4,34.4,30.14,NE,45,1.1,1.3,70,0.00,,,0.00,WUHU216HW,2013-03-29 07:55:00,
2013-03-29 03:00:00,43.3,34.6,30.14,NE,45,0.0,1.3,71,0.00,,,0.00,WUHU216HW,2013-03-29 08:00:00,
2013-03-29 03:05:00,42.9,34.2,30.14,NNE,23,0.0,1.1,71,0.00,,,0.00,WUHU216HW,2013-03-29 08:05:00,
2013-03-29 03:10:00,42.7,34.0,30.14,NW,315,1.1,1.1,71,0.00,,,0.00,WUHU216HW,2013-03-29 08:10:00,
2013-03-29 03:15:00,42.5,34.2,30.14,SW,225,1.1,1.1,72,0.00,,,0.00,WUHU216HW,2013-03-29 08:15:00,
2013-03-29 03:20:00,42.4,34.1,30.14,NW,315,0.0,1.1,72,0.00,,,0.00,WUHU216HW,2013-03-29 08:20:00,
2013-03-29 03:25:00,42.4,34.4,30.13,NW,315,0.0,1.1,73,0.00,,,0.00,WUHU216HW,2013-03-29 08:25:00,
2013-03-29 03:30:00,42.2,33.9,30.14,NW,315,0.0,0.7,72,0.00,,,0.00,WUHU216HW,2013-03-29 08:30:00,
2013-03-29 03:35:00,41.8,33.5,30.13,ENE,68,0.0,0.9,72,0.00,,,0.00,WUHU216HW,2013-03-29 08:35:00,
2013-03-29 03:40:00,41.5,33.2,30.13,ENE,68,0.4,0.9,72,0.00,,,0.00,WUHU216HW,2013-03-29 08:40:00,
2013-03-29 03:45:00,41.3,33.4,30.13,North,0,0.4,0.9,73,0.00,,,0.00,WUHU216HW,2013-03-29 08:45:00,
2013-03-29 03:50:00,40.9,33.0,30.13,SW,225,0.4,1.3,73,0.00,,,0.00,WUHU216HW,2013-03-29 08:50:00,
2013-03-29 03:55:00,40.7,32.8,30.13,WSW,248,1.1,1.8,73,0.00,,,0.00,WUHU216HW,2013-03-29 08:55:00,
2013-03-29 04:00:00,40.6,33.0,30.13,WNW,293,0.0,1.8,74,0.00,,,0.00,WUHU216HW,2013-03-29 09:00:00,
2013-03-29 04:05:00,40.6,32.7,30.13,SSE,158,0.4,1.1,73,0.00,,,0.00,WUHU216HW,2013-03-29 09:05:00,
2013-03-29 04:10:00,40.4,32.5,30.13,SW,225,1.8,1.8,73,0.00,,,0.00,WUHU216HW,2013-03-29 09:10:00,
2013-03-29 04:15:00,39.8,31.9,30.13,SW,225,0.0,1.8,73,0.00,,,0.00,WUHU216HW,2013-03-29 09:15:00,
2013-03-29 04:20:00,39.5,31.6,30.13,SW,225,1.8,2.5,73,0.00,,,0.00,WUHU216HW,2013-03-29 09:20:00,
2013-03-29 04:25:00,38.9,31.4,30.14,WSW,248,2.7,3.8,74,0.00,,,0.00,WUHU216HW,2013-03-29 09:25:00,
2013-03-29 04:30:00,38.8,31.3,30.14,WSW,248,0.0,3.8,74,0.00,,,0.00,WUHU216HW,2013-03-29 09:30:00,
2013-03-29 04:35:00,38.6,31.1,30.14,South,180,0.7,2.9,74,0.00,,,0.00,WUHU216HW,2013-03-29 09:35:00,
2013-03-29 04:40:00,38.4,30.9,30.14,South,180,0.0,1.1,74,0.00,,,0.00,WUHU216HW,2013-03-29 09:40:00,
2013-03-29 04:45:00,38.2,30.7,30.14,WNW,293,0.7,0.7,74,0.00,,,0.00,WUHU216HW,2013-03-29 09:45:00,
2013-03-29 04:50:00,38.0,31.2,30.14,NNW,338,1.1,1.1,76,0.00,,,0.00,WUHU216HW,2013-03-29 09:50:00,
2013-03-29 04:55:00,37.9,31.1,30.14,NNW,338,0.4,1.1,76,0.00,,,0.00,WUHU216HW,2013-03-29 09:55:00,
2013-03-29 05:00:00,37.9,31.4,30.14,NNW,338,0.2,1.1,77,0.00,,,0.00,WUHU216HW,2013-03-29 10:00:00,
2013-03-29 05:05:00,37.9,31.4,30.14,WSW,248,0.0,1.1,77,0.00,,,0.00,WUHU216HW,2013-03-29 10:05:00,
2013-03-29 05:10:00,37.7,31.2,30.14,SW,225,1.6,1.8,77,0.00,,,0.00,WUHU216HW,2013-03-29 10:10:00,
2013-03-29 05:15:00,37.5,31.0,30.14,WNW,293,0.0,1.8,77,0.00,,,0.00,WUHU216HW,2013-03-29 10:15:00,
2013-03-29 05:20:00,37.3,30.8,30.14,WSW,248,1.1,1.6,77,0.00,,,0.00,WUHU216HW,2013-03-29 10:20:00,
2013-03-29 05:25:00,37.1,30.6,30.14,SW,225,0.9,1.8,77,0.00,,,0.00,WUHU216HW,2013-03-29 10:25:00,
2013-03-29 05:30:00,37.0,30.5,30.14,SW,225,1.8,1.8,77,0.00,,,0.00,WUHU216HW,2013-03-29 10:30:00,
2013-03-29 05:35:00,37.0,30.5,30.14,SSW,203,1.1,2.7,77,0.00,,,0.00,WUHU216HW,2013-03-29 10:35:00,
2013-03-29 05:40:00,36.6,30.1,30.14,SW,225,0.9,2.7,77,0.00,,,0.00,WUHU216HW,2013-03-29 10:40:00,
2013-03-29 05:45:00,36.2,29.7,30.14,SW,225,0.9,1.8,77,0.00,,,0.00,WUHU216HW,2013-03-29 10:45:00,
2013-03-29 05:50:00,36.1,29.6,30.15,SSW,203,1.1,1.1,77,0.00,,,0.00,WUHU216HW,2013-03-29 10:50:00,
2013-03-29 05:55:00,35.9,29.4,30.15,SW,225,1.1,1.1,77,0.00,,,0.00,WUHU216HW,2013-03-29 10:55:00,
2013-03-29 06:00:00,35.5,29.0,30.15,SW,225,0.0,1.6,77,0.00,,,0.00,WUHU216HW,2013-03-29 11:00:00,
2013-03-29 06:05:00,35.3,28.5,30.15,SW,225,0.0,1.6,76,0.00,,,0.00,WUHU216HW,2013-03-29 11:05:00,
2013-03-29 06:10:00,35.2,28.4,30.15,SW,225,2.5,2.5,76,0.00,,,0.00,WUHU216HW,2013-03-29 11:10:00,
2013-03-29 06:15:00,35.2,28.7,30.16,SW,225,0.9,2.5,77,0.00,,,0.00,WUHU216HW,2013-03-29 11:15:00,
2013-03-29 06:20:00,35.0,28.6,30.16,SW,225,0.4,2.5,77,0.00,,,0.00,WUHU216HW,2013-03-29 11:20:00,
2013-03-29 06:25:00,34.8,28.4,30.16,SW,225,0.0,1.1,77,0.00,,,0.00,WUHU216HW,2013-03-29 11:25:00,
2013-03-29 06:30:00,34.8,28.4,30.16,SW,225,1.1,1.1,77,0.00,,,0.00,WUHU216HW,2013-03-29 11:30:00,
2013-03-29 06:35:00,34.4,28.0,30.16,SW,225,0.0,1.1,77,0.00,,,0.00,WUHU216HW,2013-03-29 11:35:00,
2013-03-29 06:40:00,34.4,28.3,30.16,SW,225,1.3,1.3,78,0.00,,,0.00,WUHU216HW,2013-03-29 11:40:00,
2013-03-29 06:45:00,34.3,28.2,30.16,SW,225,0.0,1.3,78,0.00,,,0.00,WUHU216HW,2013-03-29 11:45:00,
2013-03-29 06:50:00,34.1,28.0,30.16,SSW,203,0.0,1.1,78,0.00,,,0.00,WUHU216HW,2013-03-29 11:50:00,
2013-03-29 06:55:00,34.1,28.0,30.16,SW,225,0.7,1.6,78,0.00,,,0.00,WUHU216HW,2013-03-29 11:55:00,
2013-03-29 07:00:00,33.9,27.8,30.16,WSW,248,0.4,1.8,78,0.00,,,0.00,WUHU216HW,2013-03-29 12:00:00,
2013-03-29 07:05:00,33.7,27.9,30.16,SW,225,1.1,1.8,79,0.00,,,0.00,WUHU216HW,2013-03-29 12:05:00,
2013-03-29 07:10:00,33.7,27.9,30.16,SW,225,1.1,1.1,79,0.00,,,0.00,WUHU216HW,2013-03-29 12:10:00,
2013-03-29 07:15:00,33.7,27.9,30.17,SW,225,1.1,1.3,79,0.00,,,0.00,WUHU216HW,2013-03-29 12:15:00,
2013-03-29 07:20:00,33.5,27.7,30.17,SW,225,0.0,1.3,79,0.00,,,0.00,WUHU216HW,2013-03-29 12:20:00,
2013-03-29 07:25:00,33.5,27.7,30.17,SW,225,0.0,1.1,79,0.00,,,0.00,WUHU216HW,2013-03-29 12:25:00,
2013-03-29 07:30:00,33.4,27.6,30.17,SW,225,1.1,1.1,79,0.00,,,0.00,WUHU216HW,2013-03-29 12:30:00,
2013-03-29 07:35:00,33.4,27.9,30.17,SW,225,0.4,1.1,80,0.00,,,0.00,WUHU216HW,2013-03-29 12:35:00,
2013-03-29 07:40:00,33.4,27.9,30.17,SW,225,0.7,1.1,80,0.00,,,0.00,WUHU216HW,2013-03-29 12:40:00,
2013-03-29 07:45:00,33.5,28.0,30.18,SW,225,0.7,1.1,80,0.00,,,0.00,WUHU216HW,2013-03-29 12:45:00,
2013-03-29 07:50:00,33.5,28.0,30.18,SSW,203,0.0,1.8,80,0.00,,,0.00,WUHU216HW,2013-03-29 12:50:00,
2013-03-29 07:55:00,33.7,28.5,30.18,SSW,203,0.0,1.8,81,0.00,,,0.00,WUHU216HW,2013-03-29 12:55:00,
2013-03-29 08:00:00,34.1,28.9,30.18,SSE,158,0.0,0.2,81,0.00,,,0.00,WUHU216HW,2013-03-29 13:00:00,
2013-03-29 08:05:00,34.3,29.4,30.18,SSE,158,0.0,0.2,82,0.00,,,0.00,WUHU216HW,2013-03-29 13:05:00,
2013-03-29 08:10:00,34.8,30.2,30.18,SW,225,0.0,0.4,83,0.00,,,0.00,WUHU216HW,2013-03-29 13:10:00,
2013-03-29 08:15:00,35.3,30.9,30.18,SW,225,0.0,0.4,84,0.00,,,0.00,WUHU216HW,2013-03-29 13:15:00,
2013-03-29 08:20:00,35.9,31.5,30.18,SE,135,0.0,1.1,84,0.00,,,0.00,WUHU216HW,2013-03-29 13:20:00,
2013-03-29 08:25:00,36.6,32.2,30.18,SE,135,0.0,1.1,84,0.00,,,0.00,WUHU216HW,2013-03-29 13:25:00,
2013-03-29 08:30:00,37.3,32.9,30.18,ENE,68,0.9,0.9,84,0.00,,,0.00,WUHU216HW,2013-03-29 13:30:00,
2013-03-29 08:35:00,38.0,33.3,30.18,ESE,113,0.0,2.5,83,0.00,,,0.00,WUHU216HW,2013-03-29 13:35:00,
2013-03-29 08:40:00,38.8,34.1,30.18,SSE,158,0.4,2.5,83,0.00,,,0.00,WUHU216HW,2013-03-29 13:40:00,
2013-03-29 08:45:00,39.5,34.8,30.18,ENE,68,0.0,1.8,83,0.00,,,0.00,WUHU216HW,2013-03-29 13:45:00,
2013-03-29 08:50:00,40.0,35.0,30.18,East,90,2.2,2.5,82,0.00,,,0.00,WUHU216HW,2013-03-29 13:50:00,
2013-03-29 08:55:00,40.7,35.6,30.19,ENE,68,1.8,3.8,82,0.00,,,0.00,WUHU216HW,2013-03-29 13:55:00,
2013-03-29 09:00:00,41.6,36.2,30.18,ESE,113,1.8,3.8,81,0.00,,,0.00,WUHU216HW,2013-03-29 14:00:00,
2013-03-29 09:05:00,42.0,36.3,30.18,ENE,68,3.4,4.7,80,0.00,,,0.00,WUHU216HW,2013-03-29 14:05:00,
2013-03-29 09:10:00,42.5,36.5,30.18,ENE,68,3.8,5.1,79,0.00,,,0.00,WUHU216HW,2013-03-29 14:10:00,
2013-03-29 09:15:00,43.1,36.7,30.18,North,0,2.5,5.1,78,0.00,,,0.00,WUHU216HW,2013-03-29 14:15:00,
2013-03-29 09:20:00,43.8,37.1,30.18,ENE,68,4.3,4.3,77,0.00,,,0.00,WUHU216HW,2013-03-29 14:20:00,
2013-03-29 09:25:00,44.3,37.9,30.19,SE,135,2.5,4.3,78,0.00,,,0.00,WUHU216HW,2013-03-29 14:25:00,
2013-03-29 09:30:00,44.7,38.0,30.19,ESE,113,1.8,4.3,77,0.00,,,0.00,WUHU216HW,2013-03-29 14:30:00,
2013-03-29 09:35:00,45.2,38.1,30.19,NE,45,2.9,4.3,76,0.00,,,0.00,WUHU216HW,2013-03-29 14:35:00,
2013-03-29 09:40:00,45.8,38.7,30.19,East,90,1.6,4.3,76,0.00,,,0.00,WUHU216HW,2013-03-29 14:40:00,
2013-03-29 09:45:00,46.1,38.7,30.19,ENE,68,1.1,3.4,75,0.00,,,0.00,WUHU216HW,2013-03-29 14:45:00,
2013-03-29 09:50:00,46.7,39.3,30.19,East,90,1.1,3.8,75,0.00,,,0.00,WUHU216HW,2013-03-29 14:50:00,
2013-03-29 09:55:00,47.2,39.4,30.19,NNE,23,4.7,4.7,74,0.00,,,0.00,WUHU216HW,2013-03-29 14:55:00,
2013-03-29 10:00:00,47.8,39.6,30.18,ENE,68,2.0,4.7,73,0.00,,,0.00,WUHU216HW,2013-03-29 15:00:00,
2013-03-29 10:05:00,48.1,39.6,30.18,NE,45,3.4,6.3,72,0.00,,,0.00,WUHU216HW,2013-03-29 15:05:00,
2013-03-29 10:10:00,48.8,40.3,30.18,East,90,4.3,6.3,72,0.00,,,0.00,WUHU216HW,2013-03-29 15:10:00,
2013-03-29 10:15:00,49.4,40.8,30.18,North,0,2.0,5.1,72,0.00,,,0.00,WUHU216HW,2013-03-29 15:15:00,
2013-03-29 10:20:00,49.9,40.6,30.18,East,90,4.7,6.9,70,0.00,,,0.00,WUHU216HW,2013-03-29 15:20:00,
2013-03-29 10:25:00,50.5,40.8,30.18,SE,135,1.6,6.9,69,0.00,,,0.00,WUHU216HW,2013-03-29 15:25:00,
2013-03-29 10:30:00,51.0,41.3,30.18,ENE,68,1.8,6.5,69,0.00,,,0.00,WUHU216HW,2013-03-29 15:30:00,
2013-03-29 10:35:00,51.5,41.4,30.18,ENE,68,5.6,6.5,68,0.00,,,0.00,WUHU216HW,2013-03-29 15:35:00,
2013-03-29 10:40:00,52.3,41.4,30.18,ENE,68,2.7,6.3,66,0.00,,,0.00,WUHU216HW,2013-03-29 15:40:00,
2013-03-29 10:45:00,52.8,41.5,30.18,NE,45,1.8,6.3,65,0.00,,,0.00,WUHU216HW,2013-03-29 15:45:00,
2013-03-29 10:50:00,53.3,41.6,30.18,SE,135,3.4,7.6,64,0.00,,,0.00,WUHU216HW,2013-03-29 15:50:00,
2013-03-29 10:55:00,53.9,41.7,30.18,ENE,68,7.6,8.9,63,0.00,,,0.00,WUHU216HW,2013-03-29 15:55:00,
2013-03-29 11:00:00,54.2,41.6,30.18,ENE,68,6.0,8.9,62,0.00,,,0.00,WUHU216HW,2013-03-29 16:00:00,
2013-03-29 11:05:00,54.4,41.8,30.18,ESE,113,4.5,7.6,62,0.00,,,0.00,WUHU216HW,2013-03-29 16:05:00,
2013-03-29 11:10:00,55.0,41.5,30.18,East,90,2.2,7.2,60,0.00,,,0.00,WUHU216HW,2013-03-29 16:10:00,
2013-03-29 11:15:00,55.7,42.1,30.18,NNE,23,3.4,7.2,60,0.00,,,0.00,WUHU216HW,2013-03-29 16:15:00,
2013-03-29 11:20:00,56.0,42.4,30.18,ESE,113,0.9,6.7,60,0.00,,,0.00,WUHU216HW,2013-03-29 16:20:00,
2013-03-29 11:25:00,56.4,42.8,30.18,ENE,68,2.5,6.7,60,0.00,,,0.00,WUHU216HW,2013-03-29 16:25:00,
2013-03-29 11:30:00,56.8,42.7,30.18,East,90,4.5,7.6,59,0.00,,,0.00,WUHU216HW,2013-03-29 16:30:00,
2013-03-29 11:35:00,56.9,42.4,30.18,ENE,68,2.0,7.6,58,0.00,,,0.00,WUHU216HW,2013-03-29 16:35:00,
2013-03-29 11:40:00,57.1,42.1,30.18,ESE,113,4.0,8.1,57,0.00,,,0.00,WUHU216HW,2013-03-29 16:40:00,
2013-03-29 11:45:00,57.1,42.6,30.18,SE,135,1.8,8.1,58,0.00,,,0.00,WUHU216HW,2013-03-29 16:45:00,
2013-03-29 11:50:00,58.0,42.9,30.18,East,90,6.3,6.3,57,0.00,,,0.00,WUHU216HW,2013-03-29 16:50:00,
2013-03-29 11:55:00,58.4,42.8,30.18,NNE,23,7.2,7.2,56,0.00,,,0.00,WUHU216HW,2013-03-29 16:55:00,
2013-03-29 12:00:00,58.9,42.3,30.18,SE,135,5.1,7.2,54,0.00,,,0.00,WUHU216HW,2013-03-29 17:00:00,
2013-03-29 12:05:00,59.5,43.4,30.18,SE,135,3.6,6.9,55,0.00,,,0.00,WUHU216HW,2013-03-29 17:05:00,
2013-03-29 12:10:00,59.6,43.5,30.18,East,90,2.5,5.4,55,0.00,,,0.00,WUHU216HW,2013-03-29 17:10:00,
2013-03-29 12:15:00,60.0,43.4,30.17,ESE,113,4.7,10.3,54,0.00,,,0.00,WUHU216HW,2013-03-29 17:15:00,
2013-03-29 12:20:00,60.4,42.7,30.17,ESE,113,6.3,10.3,52,0.00,,,0.00,WUHU216HW,2013-03-29 17:20:00,
2013-03-29 12:25:00,60.9,43.2,30.17,ESE,113,6.9,7.4,52,0.00,,,0.00,WUHU216HW,2013-03-29 17:25:00,
2013-03-29 12:30:00,61.1,43.4,30.17,ENE,68,7.8,7.8,52,0.00,,,0.00,WUHU216HW,2013-03-29 17:30:00,
2013-03-29 12:35:00,61.1,43.4,30.17,SSE,158,2.5,7.8,52,0.00,,,0.00,WUHU216HW,2013-03-29 17:35:00,
2013-03-29 12:40:00,61.4,43.1,30.17,NE,45,5.4,6.0,51,0.00,,,0.00,WUHU216HW,2013-03-29 17:40:00,
2013-03-29 12:45:00,61.4,43.1,30.17,South,180,3.1,6.7,51,0.00,,,0.00,WUHU216HW,2013-03-29 17:45:00,
2013-03-29 12:50:00,61.8,43.5,30.17,ENE,68,6.3,6.7,51,0.00,,,0.00,WUHU216HW,2013-03-29 17:50:00,
2013-03-29 12:55:00,61.6,42.8,30.17,East,90,2.7,6.3,50,0.00,,,0.00,WUHU216HW,2013-03-29 17:55:00,
2013-03-29 13:00:00,61.6,42.8,30.17,ESE,113,5.1,6.3,50,0.00,,,0.00,WUHU216HW,2013-03-29 18:00:00,
2013-03-29 13:05:00,62.2,42.8,30.16,East,90,4.7,5.8,49,0.00,,,0.00,WUHU216HW,2013-03-29 18:05:00,
2013-03-29 13:10:00,62.9,43.4,30.16,SSE,158,2.0,5.8,49,0.00,,,0.00,WUHU216HW,2013-03-29 18:10:00,
2013-03-29 13:15:00,63.2,43.7,30.16,ENE,68,1.8,6.5,49,0.00,,,0.00,WUHU216HW,2013-03-29 18:15:00,
2013-03-29 13:20:00,63.6,43.5,30.16,SW,225,1.8,6.5,48,0.00,,,0.00,WUHU216HW,2013-03-29 18:20:00,
2013-03-29 13:25:00,63.8,43.7,30.16,SSW,203,1.3,2.2,48,0.00,,,0.00,WUHU216HW,2013-03-29 18:25:00,
2013-03-29 13:30:00,64.1,44.0,30.15,SE,135,4.0,5.1,48,0.00,,,0.00,WUHU216HW,2013-03-29 18:30:00,
2013-03-29 13:35:00,64.1,44.0,30.15,ENE,68,3.4,5.1,48,0.00,,,0.00,WUHU216HW,2013-03-29 18:35:00,
2013-03-29 13:40:00,64.0,43.3,30.15,East,90,5.6,7.2,47,0.00,,,0.00,WUHU216HW,2013-03-29 18:40:00,
2013-03-29 13:45:00,63.8,43.2,30.15,ESE,113,2.0,7.2,47,0.00,,,0.00,WUHU216HW,2013-03-29 18:45:00,
2013-03-29 13:50:00,64.0,43.3,30.14,ESE,113,1.6,5.6,47,0.00,,,0.00,WUHU216HW,2013-03-29 18:50:00,
2013-03-29 13:55:00,64.3,43.0,30.14,ESE,113,4.7,4.7,46,0.00,,,0.00,WUHU216HW,2013-03-29 18:55:00,
2013-03-29 14:00:00,64.7,42.8,30.14,ESE,113,5.4,8.3,45,0.00,,,0.00,WUHU216HW,2013-03-29 19:00:00,
2013-03-29 14:05:00,64.7,42.8,30.14,East,90,5.8,8.3,45,0.00,,,0.00,WUHU216HW,2013-03-29 19:05:00,
2013-03-29 14:10:00,64.7,42.2,30.13,NNE,23,4.3,9.2,44,0.00,,,0.00,WUHU216HW,2013-03-29 19:10:00,
2013-03-29 14:15:00,64.7,42.8,30.13,SSW,203,2.2,9.2,45,0.00,,,0.00,WUHU216HW,2013-03-29 19:15:00,
2013-03-29 14:20:00,65.4,42.2,30.13,ESE,113,6.3,6.3,43,0.00,,,0.00,WUHU216HW,2013-03-29 19:20:00,
2013-03-29 14:25:00,65.8,42.6,30.13,ENE,68,2.5,6.3,43,0.00,,,0.00,WUHU216HW,2013-03-29 19:25:00,
2013-03-29 14:30:00,65.6,42.4,30.12,East,90,5.6,6.3,43,0.00,,,0.00,WUHU216HW,2013-03-29 19:30:00,
2013-03-29 14:35:00,65.4,42.8,30.12,SE,135,7.6,7.6,44,0.00,,,0.00,WUHU216HW,2013-03-29 19:35:00,
2013-03-29 14:40:00,65.2,42.7,30.12,East,90,5.8,7.6,44,0.00,,,0.00,WUHU216HW,2013-03-29 19:40:00,
2013-03-29 14:45:00,65.2,41.4,30.12,NE,45,6.5,7.6,42,0.00,,,0.00,WUHU216HW,2013-03-29 19:45:00,
2013-03-29 14:50:00,65.4,42.2,30.12,WSW,248,1.1,6.5,43,0.00,,,0.00,WUHU216HW,2013-03-29 19:50:00,
2013-03-29 14:55:00,66.1,41.6,30.11,ESE,113,4.5,10.3,41,0.00,,,0.00,WUHU216HW,2013-03-29 19:55:00,
2013-03-29 15:00:00,66.8,42.2,30.12,ENE,68,3.6,10.3,41,0.00,,,0.00,WUHU216HW,2013-03-29 20:00:00,
2013-03-29 15:05:00,67.2,43.2,30.11,ESE,113,3.6,6.3,42,0.00,,,0.00,WUHU216HW,2013-03-29 20:05:00,
2013-03-29 15:10:00,67.0,42.4,30.11,ESE,113,2.5,6.9,41,0.00,,,0.00,WUHU216HW,2013-03-29 20:10:00,
2013-03-29 15:15:00,67.2,42.6,30.10,SSW,203,6.9,6.9,41,0.00,,,0.00,WUHU216HW,2013-03-29 20:15:00,
2013-03-29 15:20:00,67.4,41.4,30.10,SE,135,6.5,6.9,39,0.00,,,0.00,WUHU216HW,2013-03-29 20:20:00,
2013-03-29 15:25:00,67.4,41.4,30.10,SSW,203,3.1,6.9,39,0.00,,,0.00,WUHU216HW,2013-03-29 20:25:00,
2013-03-29 15:30:00,67.6,41.6,30.10,ENE,68,2.5,8.5,39,0.00,,,0.00,WUHU216HW,2013-03-29 20:30:00,
2013-03-29 15:35:00,67.9,41.9,30.10,SSE,158,2.9,8.5,39,0.00,,,0.00,WUHU216HW,2013-03-29 20:35:00,
2013-03-29 15:40:00,68.3,41.6,30.10,South,180,6.9,6.9,38,0.00,,,0.00,WUHU216HW,2013-03-29 20:40:00,
2013-03-29 15:45:00,68.3,42.2,30.10,South,180,2.0,6.9,39,0.00,,,0.00,WUHU216HW,2013-03-29 20:45:00,
2013-03-29 15:50:00,68.3,42.2,30.09,SE,135,5.4,8.3,39,0.00,,,0.00,WUHU216HW,2013-03-29 20:50:00,
2013-03-29 15:55:00,68.6,41.8,30.09,SE,135,6.0,9.2,38,0.00,,,0.00,WUHU216HW,2013-03-29 20:55:00,
2013-03-29 16:00:00,68.5,41.7,30.09,North,0,1.1,9.2,38,0.00,,,0.00,WUHU216HW,2013-03-29 21:00:00,
2013-03-29 16:05:00,68.6,41.1,30.09,ESE,113,5.1,8.9,37,0.00,,,0.00,WUHU216HW,2013-03-29 21:05:00,
2013-03-29 16:10:00,68.5,41.0,30.09,ESE,113,2.0,8.9,37,0.00,,,0.00,WUHU216HW,2013-03-29 21:10:00,
2013-03-29 16:15:00,68.6,41.1,30.09,South,180,9.6,9.6,37,0.00,,,0.00,WUHU216HW,2013-03-29 21:15:00,
2013-03-29 16:20:00,69.0,42.2,30.09,ESE,113,5.6,9.6,38,0.00,,,0.00,WUHU216HW,2013-03-29 21:20:00,
2013-03-29 16:25:00,69.0,41.5,30.09,SSE,158,5.1,6.3,37,0.00,,,0.00,WUHU216HW,2013-03-29 21:25:00,
2013-03-29 16:30:00,68.8,41.3,30.09,NNE,23,4.0,6.3,37,0.00,,,0.00,WUHU216HW,2013-03-29 21:30:00,
2013-03-29 16:35:00,68.5,41.0,30.09,East,90,6.5,6.9,37,0.00,,,0.00,WUHU216HW,2013-03-29 21:35:00,
2013-03-29 16:40:00,68.3,40.8,30.09,South,180,4.9,8.5,37,0.00,,,0.00,WUHU216HW,2013-03-29 21:40:00,
2013-03-29 16:45:00,68.3,40.8,30.09,ESE,113,6.9,8.5,37,0.00,,,0.00,WUHU216HW,2013-03-29 21:45:00,
2013-03-29 16:47:00,68.1,40.7,30.09,ESE,113,2.9,2.9,37,0.00,,,0.00,WUHU216HW,2013-03-29 21:47:00,
2013-03-29 16:50:00,68.1,40.7,30.09,ESE,113,2.9,8.1,37,0.00,,,0.00,WUHU216HW,2013-03-29 21:50:00,
2013-03-29 16:55:00,68.1,40.7,30.09,ESE,113,2.9,3.4,37,0.00,,,0.00,WUHU216HW,2013-03-29 21:55:00,
2013-03-29 17:00:00,68.5,41.0,30.09,ENE,68,1.1,1.1,37,0.00,,,0.00,WUHU216HW,2013-03-29 22:00:00,
2013-03-29 17:05:00,68.3,40.8,30.08,ESE,113,5.8,6.9,37,0.00,,,0.00,WUHU216HW,2013-03-29 22:05:00,
2013-03-29 17:10:00,68.1,40.7,30.09,South,180,3.1,6.9,37,0.00,,,0.00,WUHU216HW,2013-03-29 22:10:00,
2013-03-29 17:15:00,68.5,41.7,30.09,South,180,3.4,4.7,38,0.00,,,0.00,WUHU216HW,2013-03-29 22:15:00,
2013-03-29 17:20:00,68.6,41.1,30.09,SSE,158,5.4,5.4,37,0.00,,,0.00,WUHU216HW,2013-03-29 22:20:00,
2013-03-29 17:25:00,68.6,41.8,30.09,South,180,4.3,5.4,38,0.00,,,0.00,WUHU216HW,2013-03-29 22:25:00,
2013-03-29 17:30:00,68.6,40.4,30.09,ENE,68,6.3,6.9,36,0.00,,,0.00,WUHU216HW,2013-03-29 22:30:00,
2013-03-29 17:35:00,68.1,40.0,30.08,South,180,5.6,6.9,36,0.00,,,0.00,WUHU216HW,2013-03-29 22:35:00,
2013-03-29 17:40:00,68.3,40.8,30.08,SSW,203,5.1,6.7,37,0.00,,,0.00,WUHU216HW,2013-03-29 22:40:00,
2013-03-29 17:45:00,68.6,41.1,30.08,South,180,2.9,7.2,37,0.00,,,0.00,WUHU216HW,2013-03-29 22:45:00,
2013-03-29 17:50:00,68.8,41.3,30.08,SSE,158,6.3,7.2,37,0.00,,,0.00,WUHU216HW,2013-03-29 22:50:00,
2013-03-29 17:55:00,68.8,41.3,30.08,SSW,203,3.4,6.9,37,0.00,,,0.00,WUHU216HW,2013-03-29 22:55:00,
2013-03-29 18:00:00,68.8,39.8,30.08,SSE,158,2.2,5.8,35,0.00,,,0.00,WUHU216HW,2013-03-29 23:00:00,
2013-03-29 18:05:00,68.6,40.4,30.09,SSE,158,6.9,6.9,36,0.00,,,0.00,WUHU216HW,2013-03-29 23:05:00,
2013-03-29 18:10:00,68.6,39.7,30.09,East,90,6.9,6.9,35,0.00,,,0.00,WUHU216HW,2013-03-29 23:10:00,
2013-03-29 18:15:00,68.3,38.7,30.08,ESE,113,9.8,9.8,34,0.00,,,0.00,WUHU216HW,2013-03-29 23:15:00,
2013-03-29 18:20:00,67.7,38.9,30.09,South,180,8.7,9.8,35,0.00,,,0.00,WUHU216HW,2013-03-29 23:20:00,
2013-03-29 18:25:00,67.9,39.0,30.09,ENE,68,2.5,8.7,35,0.00,,,0.00,WUHU216HW,2013-03-29 23:25:00,
2013-03-29 18:30:00,67.7,38.9,30.09,SSE,158,1.3,5.8,35,0.00,,,0.00,WUHU216HW,2013-03-29 23:30:00,
2013-03-29 18:35:00,67.7,38.9,30.09,ESE,113,2.0,5.8,35,0.00,,,0.00,WUHU216HW,2013-03-29 23:35:00,
2013-03-29 18:40:00,67.7,39.6,30.09,East,90,4.5,5.1,36,0.00,,,0.00,WUHU216HW,2013-03-29 23:40:00,
2013-03-29 18:45:00,67.7,40.3,30.09,ESE,113,2.7,4.5,37,0.00,,,0.00,WUHU216HW,2013-03-29 23:45:00,
2013-03-29 18:50:00,67.7,40.3,30.09,SSE,158,5.4,5.4,37,0.00,,,0.00,WUHU216HW,2013-03-29 23:50:00,
2013-03-29 18:55:00,67.2,39.9,30.09,SSE,158,2.5,6.9,37,0.00,,,0.00,WUHU216HW,2013-03-29 23:55:00,
2013-03-29 19:00:00,66.8,40.2,30.09,SSW,203,1.8,6.9,38,0.00,,,0.00,WUHU216HW,2013-03-30 00:00:00,
2013-03-29 19:05:00,66.3,39.8,30.09,South,180,3.8,6.3,38,0.00,,,0.00,WUHU216HW,2013-03-30 00:05:00,
2013-03-29 19:10:00,65.4,39.0,30.09,South,180,4.3,4.9,38,0.00,,,0.00,WUHU216HW,2013-03-30 00:10:00,
2013-03-29 19:15:00,64.9,39.2,30.09,SE,135,3.6,4.9,39,0.00,,,0.00,WUHU216HW,2013-03-30 00:15:00,
2013-03-29 19:20:00,64.3,38.7,30.09,South,180,2.2,4.7,39,0.00,,,0.00,WUHU216HW,2013-03-30 00:20:00,
2013-03-29 19:25:00,64.0,38.4,30.09,SSE,158,1.3,4.7,39,0.00,,,0.00,WUHU216HW,2013-03-30 00:25:00,
2013-03-29 19:30:00,63.6,38.0,30.09,SSE,158,2.5,2.5,39,0.00,,,0.00,WUHU216HW,2013-03-30 00:30:00,
2013-03-29 19:35:00,63.1,37.6,30.09,SE,135,0.4,2.5,39,0.00,,,0.00,WUHU216HW,2013-03-30 00:35:00,
2013-03-29 19:40:00,62.5,37.7,30.09,SSE,158,2.0,2.0,40,0.00,,,0.00,WUHU216HW,2013-03-30 00:40:00,
2013-03-29 19:45:00,62.2,37.4,30.09,SSE,158,1.8,2.9,40,0.00,,,0.00,WUHU216HW,2013-03-30 00:45:00,
2013-03-29 19:50:00,61.4,36.7,30.09,ESE,113,0.4,2.9,40,0.00,,,0.00,WUHU216HW,2013-03-30 00:50:00,
2013-03-29 19:55:00,61.4,36.7,30.09,ESE,113,0.2,1.8,40,0.00,,,0.00,WUHU216HW,2013-03-30 00:55:00,
2013-03-29 20:00:00,60.7,36.7,30.09,SE,135,0.0,0.4,41,0.00,,,0.00,WUHU216HW,2013-03-30 01:00:00,
2013-03-29 20:05:00,60.0,36.7,30.09,SE,135,0.0,0.4,42,0.00,,,0.00,WUHU216HW,2013-03-30 01:05:00,
2013-03-29 20:10:00,60.0,36.7,30.09,SE,135,0.0,0.0,42,0.00,,,0.00,WUHU216HW,2013-03-30 01:10:00,
2013-03-29 20:15:00,58.7,36.1,30.09,SW,225,0.9,1.1,43,0.00,,,0.00,WUHU216HW,2013-03-30 01:15:00,
2013-03-29 20:20:00,57.8,35.9,30.10,SW,225,1.3,1.6,44,0.00,,,0.00,WUHU216HW,2013-03-30 01:20:00,
2013-03-29 20:25:00,57.1,35.9,30.10,SW,225,1.6,1.6,45,0.00,,,0.00,WUHU216HW,2013-03-30 01:25:00,
2013-03-29 20:30:00,56.4,35.8,30.10,SW,225,1.6,1.6,46,0.00,,,0.00,WUHU216HW,2013-03-30 01:30:00,
2013-03-29 20:35:00,55.7,35.7,30.10,SW,225,1.8,2.0,47,0.00,,,0.00,WUHU216HW,2013-03-30 01:35:00,
2013-03-29 20:40:00,54.8,34.9,30.11,SW,225,1.1,2.0,47,0.00,,,0.00,WUHU216HW,2013-03-30 01:40:00,
2013-03-29 20:45:00,54.1,34.8,30.11,SW,225,2.5,2.5,48,0.00,,,0.00,WUHU216HW,2013-03-30 01:45:00,
2013-03-29 20:50:00,53.5,34.8,30.11,SW,225,1.8,2.5,49,0.00,,,0.00,WUHU216HW,2013-03-30 01:50:00,
2013-03-29 20:55:00,52.8,34.1,30.11,SSW,203,1.3,2.5,49,0.00,,,0.00,WUHU216HW,2013-03-30 01:55:00,
2013-03-29 21:00:00,51.5,33.4,30.11,SSW,203,1.1,1.8,50,0.00,,,0.00,WUHU216HW,2013-03-30 02:00:00,
2013-03-29 21:05:00,50.8,33.3,30.11,SW,225,0.0,1.8,51,0.00,,,0.00,WUHU216HW,2013-03-30 02:05:00,
2013-03-29 21:10:00,50.5,33.5,30.11,WSW,248,2.5,2.7,52,0.00,,,0.00,WUHU216HW,2013-03-30 02:10:00,
2013-03-29 21:15:00,49.9,33.0,30.11,SW,225,0.7,2.7,52,0.00,,,0.00,WUHU216HW,2013-03-30 02:15:00,
2013-03-29 21:20:00,49.6,33.2,30.11,SW,225,1.3,1.3,53,0.00,,,0.00,WUHU216HW,2013-03-30 02:20:00,
2013-03-29 21:25:00,49.2,33.3,30.11,SW,225,1.8,2.0,54,0.00,,,0.00,WUHU216HW,2013-03-30 02:25:00,
2013-03-29 21:30:00,48.7,32.8,30.11,SW,225,1.8,2.0,54,0.00,,,0.00,WUHU216HW,2013-03-30 02:30:00,
2013-03-29 21:35:00,48.3,32.9,30.11,SW,225,0.9,1.8,55,0.00,,,0.00,WUHU216HW,2013-03-30 02:35:00,
2013-03-29 21:40:00,47.8,32.9,30.11,SW,225,1.1,1.6,56,0.00,,,0.00,WUHU216HW,2013-03-30 02:40:00,
2013-03-29 21:45:00,47.4,32.5,30.11,SW,225,1.3,1.8,56,0.00,,,0.00,WUHU216HW,2013-03-30 02:45:00,
2013-03-29 21:50:00,47.0,32.6,30.10,SW,225,0.7,1.8,57,0.00,,,0.00,WUHU216HW,2013-03-30 02:50:00,
2013-03-29 21:55:00,46.7,32.3,30.10,SSW,203,0.4,1.8,57,0.00,,,0.00,WUHU216HW,2013-03-30 02:55:00,
2013-03-29 22:00:00,46.1,32.2,30.10,SW,225,1.3,1.6,58,0.00,,,0.00,WUHU216HW,2013-03-30 03:00:00,
2013-03-29 22:05:00,45.8,32.4,30.10,SW,225,1.6,1.8,59,0.00,,,0.00,WUHU216HW,2013-03-30 03:05:00,
2013-03-29 22:10:00,45.6,32.2,30.10,SW,225,1.1,1.8,59,0.00,,,0.00,WUHU216HW,2013-03-30 03:10:00,
2013-03-29 22:15:00,45.2,32.2,30.10,SW,225,0.9,1.8,60,0.00,,,0.00,WUHU216HW,2013-03-30 03:15:00,
2013-03-29 22:20:00,44.9,31.9,30.10,SW,225,1.1,1.8,60,0.00,,,0.00,WUHU216HW,2013-03-30 03:20:00,
2013-03-29 22:25:00,44.5,32.0,30.10,SSW,203,0.9,1.8,61,0.00,,,0.00,WUHU216HW,2013-03-30 03:25:00,
2013-03-29 22:30:00,44.2,31.7,30.10,SSW,203,1.1,1.8,61,0.00,,,0.00,WUHU216HW,2013-03-30 03:30:00,
2013-03-29 22:35:00,43.8,31.3,30.10,SW,225,1.1,2.0,61,0.00,,,0.00,WUHU216HW,2013-03-30 03:35:00,
2013-03-29 22:40:00,43.4,30.9,30.10,SW,225,1.1,2.0,61,0.00,,,0.00,WUHU216HW,2013-03-30 03:40:00,
2013-03-29 22:45:00,43.3,31.2,30.10,SW,225,1.1,1.1,62,0.00,,,0.00,WUHU216HW,2013-03-30 03:45:00,
2013-03-29 22:50:00,43.1,31.0,30.10,SW,225,0.7,1.3,62,0.00,,,0.00,WUHU216HW,2013-03-30 03:50:00,
2013-03-29 22:55:00,42.9,31.3,30.09,SSW,203,0.4,1.8,63,0.00,,,0.00,WUHU216HW,2013-03-30 03:55:00,
2013-03-29 23:00:00,42.7,31.1,30.09,SW,225,1.6,1.8,63,0.00,,,0.00,WUHU216HW,2013-03-30 04:00:00,
2013-03-29 23:05:00,42.5,31.3,30.10,SW,225,0.0,1.8,64,0.00,,,0.00,WUHU216HW,2013-03-30 04:05:00,
2013-03-29 23:10:00,42.4,31.2,30.09,SSW,203,0.9,1.6,64,0.00,,,0.00,WUHU216HW,2013-03-30 04:10:00,
2013-03-29 23:15:00,42.2,31.0,30.09,SSW,203,0.9,1.1,64,0.00,,,0.00,WUHU216HW,2013-03-30 04:15:00,
2013-03-29 23:20:00,42.0,31.2,30.09,SSW,203,1.1,1.3,65,0.00,,,0.00,WUHU216HW,2013-03-30 04:20:00,
2013-03-29 23:24:00,42.0,31.2,30.09,SSW,203,0.7,0.7,65,0.00,,,0.00,WUHU216HW,2013-03-30 04:24:00,
2013-03-29 23:25:00,42.0,31.2,30.09,SSW,203,0.7,1.8,65,0.00,,,0.00,WUHU216HW,2013-03-30 04:25:00,
2013-03-29 23:30:00,42.0,31.2,30.09,SSW,203,0.7,1.8,65,0.00,,,0.00,WUHU216HW,2013-03-30 04:30:00,
2013-03-29 23:54:00,42.5,34.5,30.07,SSW,203,1.8,1.8,73,0.00,,,0.00,WUHU216HW,2013-03-30 04:54:00,
2013-03-29 23:59:00,42.9,34.9,30.06,SSW,203,2.0,2.0,73,0.00,,,0.00,WUHU216HW,2013-03-30 04:59:00,